Wye River — WDE3583 — position and weather

sailwx.info

Track history (hours):
 
Tides and Currents Weather Stations Pressure Air Temp Water Temp Dewpoint Dewpoint Depression Visibility Wind Speed Wind Dir Waves Ship Positions

Wye River

Owner: Vane Line Bunkering, Inc., Baltimore, MD. More information available from US FCC via Universal Licensing System and Coast Guard Vessel Documentation Center.

Last reported at 2015-May-27 02:04 UTC. Time now 2015-May-27 15:48 UTC.
Position N 29°21' W 094°46'.

Length 30 m; draft 4.3 m.

Type: Towing. MMSI: 367341190.

Date/timePositionNaut miles runAvg speedWind from/ knotsBaromVisibWave heightAir tempDewpointWater temp
2015-May-27 02:04N 29°21' W 094°46'  
2015-May-21 13:24N 27°46' W 082°31'7 8.5
2015-May-21 12:33N 27°51' W 082°27'4 3.8
2015-May-21 11:33N 27°55' W 082°27'1 1.0
2015-May-21 10:33N 27°56' W 082°26'0 0.0
2015-May-21 09:33N 27°56' W 082°26'0 0.0
2015-May-21 08:33N 27°56' W 082°26'0 0.0
2015-May-21 07:33N 27°56' W 082°26'0 0.0
2015-May-21 06:33N 27°56' W 082°26'0 0.0
2015-May-21 05:33N 27°56' W 082°26'0 0.0
2015-May-21 04:33N 27°56' W 082°26'0 0.0
2015-May-21 03:33N 27°56' W 082°26'0 0.0
2015-May-21 02:33N 27°56' W 082°26'0 0.0
2015-May-21 01:33N 27°56' W 082°26'0 0.0
2015-May-21 00:33N 27°56' W 082°26'1 1.1
2015-May-20 23:33N 27°55' W 082°27'2 2.5
2015-May-20 22:33N 27°53' W 082°26'9 7.4
2015-May-20 21:24N 27°45' W 082°31'  
2015-May-18 03:33N 29°49' W 090°00'7 0.4
2015-May-17 11:06N 29°56' W 089°57'0 0.0
2015-May-17 07:29N 29°56' W 089°57'0 0.0
2015-May-17 06:32N 29°56' W 089°57'0 0.0
2015-May-17 05:23N 29°56' W 089°57'0 0.0
2015-May-17 04:09N 29°56' W 089°57'0 0.0
2015-May-17 03:29N 29°56' W 089°57'0 0.0
2015-May-17 02:25N 29°56' W 089°57'  
Track history (hours):
 
Tides and Currents Weather Stations Pressure Air Temp Water Temp Dewpoint Dewpoint Depression Visibility Wind Speed Wind Dir Waves Ship Positions

Wye River

Owner: Vane Line Bunkering, Inc., Baltimore, MD. More information available from US FCC via Universal Licensing System and Coast Guard Vessel Documentation Center.

Last reported at 2015-May-27 02:04 UTC. Time now 2015-May-27 15:48 UTC.
Position N 29°21' W 094°46'.

Length 30 m; draft 4.3 m.

Type: Towing. MMSI: 367341190.

Date/timePositionNaut miles runAvg speedWind from/ knotsBaromVisibWave heightAir tempDewpointWater temp
2015-May-27 02:04N 29°21' W 094°46'  
2015-May-21 13:24N 27°46' W 082°31'7 8.5
2015-May-21 12:33N 27°51' W 082°27'4 3.8
2015-May-21 11:33N 27°55' W 082°27'1 1.0
2015-May-21 10:33N 27°56' W 082°26'0 0.0
2015-May-21 09:33N 27°56' W 082°26'0 0.0
2015-May-21 08:33N 27°56' W 082°26'0 0.0
2015-May-21 07:33N 27°56' W 082°26'0 0.0
2015-May-21 06:33N 27°56' W 082°26'0 0.0
2015-May-21 05:33N 27°56' W 082°26'0 0.0
2015-May-21 04:33N 27°56' W 082°26'0 0.0
2015-May-21 03:33N 27°56' W 082°26'0 0.0
2015-May-21 02:33N 27°56' W 082°26'0 0.0
2015-May-21 01:33N 27°56' W 082°26'0 0.0
2015-May-21 00:33N 27°56' W 082°26'1 1.1
2015-May-20 23:33N 27°55' W 082°27'2 2.5
2015-May-20 22:33N 27°53' W 082°26'9 7.4
2015-May-20 21:24N 27°45' W 082°31'  
2015-May-18 03:33N 29°49' W 090°00'7 0.4
2015-May-17 11:06N 29°56' W 089°57'0 0.0
2015-May-17 07:29N 29°56' W 089°57'0 0.0
2015-May-17 06:32N 29°56' W 089°57'0 0.0
2015-May-17 05:23N 29°56' W 089°57'0 0.0
2015-May-17 04:09N 29°56' W 089°57'0 0.0
2015-May-17 03:29N 29°56' W 089°57'0 0.0
2015-May-17 02:25N 29°56' W 089°57'  

Dump ship's entire track history